createdAt,value
2023-03-26T00:09:33.883Z,98732.72
2023-03-26T00:15:28.810Z,98734.72
2023-03-26T00:17:58.784Z,98727.47
2023-03-26T00:20:34.782Z,98731.94
2023-03-26T00:23:28.999Z,98737.66
2023-03-26T00:29:49.304Z,98742.00
2023-03-26T00:32:21.023Z,98732.44
2023-03-26T00:35:55.528Z,98736.50
2023-03-26T00:38:38.369Z,98725.97
2023-03-26T00:41:29.722Z,98727.53
2023-03-26T00:47:45.008Z,98720.88
2023-03-26T00:50:48.755Z,98733.09
2023-03-26T00:53:24.851Z,98724.44
2023-03-26T00:56:56.589Z,98734.34
2023-03-26T01:03:00.569Z,98731.13
2023-03-26T01:06:12.064Z,98722.75
2023-03-26T01:11:50.494Z,98731.13
2023-03-26T01:14:54.791Z,98715.66
2023-03-26T01:17:41.540Z,98714.88
2023-03-26T01:20:27.605Z,98705.16
2023-03-26T01:23:08.562Z,98708.09
2023-03-26T01:25:48.763Z,98709.78
2023-03-26T01:32:26.888Z,98697.16
2023-03-26T01:35:37.535Z,98710.56
2023-03-26T01:46:26.025Z,98688.78
2023-03-26T01:49:05.228Z,98698.19
2023-03-26T01:51:53.616Z,98714.72
2023-03-26T01:54:41.931Z,98707.34
2023-03-26T01:57:24.179Z,98711.97
2023-03-26T02:00:10.017Z,98715.53
2023-03-26T02:02:55.738Z,98712.44
2023-03-26T02:05:53.534Z,98703.50
2023-03-26T02:08:24.488Z,98698.06
2023-03-26T02:10:57.181Z,98697.31
2023-03-26T02:13:26.369Z,98686.81
2023-03-26T02:16:01.197Z,98682.47
2023-03-26T02:18:29.411Z,98689.44
2023-03-26T02:20:56.259Z,98690.50
2023-03-26T02:23:23.333Z,98678.13
2023-03-26T02:25:54.377Z,98674.59
2023-03-26T02:28:21.668Z,98684.34
2023-03-26T02:30:48.520Z,98682.94
2023-03-26T02:33:19.214Z,98675.06
2023-03-26T02:35:46.799Z,98681.41
2023-03-26T02:41:06.234Z,98684.63
2023-03-26T02:43:48.829Z,98666.56
2023-03-26T02:46:21.284Z,98671.81
2023-03-26T02:49:11.270Z,98683.09
2023-03-26T02:51:39.124Z,98685.22
2023-03-26T02:54:17.600Z,98684.19
2023-03-26T02:56:55.188Z,98690.03
2023-03-26T02:59:42.194Z,98686.16
2023-03-26T03:02:40.364Z,98685.81
2023-03-26T03:05:26.271Z,98689.22
2023-03-26T03:08:12.170Z,98679.81
2023-03-26T03:11:07.430Z,98686.13
2023-03-26T03:13:46.307Z,98668.03
2023-03-26T03:16:18.640Z,98668.81
2023-03-26T03:18:49.161Z,98677.78
2023-03-26T03:21:15.963Z,98668.03
2023-03-26T03:23:43.655Z,98665.75
2023-03-26T03:26:17.307Z,98668.97
2023-03-26T03:29:15.945Z,98676.25
2023-03-26T03:31:48.126Z,98675.00
2023-03-26T03:34:30.460Z,98673.44
2023-03-26T03:36:59.201Z,98667.88
2023-03-26T03:39:35.608Z,98665.75
2023-03-26T03:42:03.122Z,98672.53
2023-03-26T03:44:30.140Z,98664.34
2023-03-26T03:46:57.884Z,98668.03
2023-03-26T03:49:28.194Z,98680.41
2023-03-26T03:51:58.116Z,98675.75
2023-03-26T03:54:31.872Z,98677.63
2023-03-26T03:57:11.458Z,98691.81
2023-03-26T04:00:10.303Z,98678.97
2023-03-26T04:02:54.713Z,98687.34
2023-03-26T04:05:27.291Z,98676.06
2023-03-26T04:07:54.781Z,98685.81
2023-03-26T04:10:31.288Z,98681.63
2023-03-26T04:13:01.830Z,98681.31
2023-03-26T04:15:57.472Z,98682.88
2023-03-26T04:18:25.695Z,98681.31
2023-03-26T04:20:52.422Z,98687.03
2023-03-26T04:23:25.311Z,98682.09
2023-03-26T04:26:18.406Z,98685.81
2023-03-26T04:29:14.383Z,98685.19
2023-03-26T04:31:42.398Z,98689.66
2023-03-26T04:34:21.073Z,98691.22
2023-03-26T04:36:56.784Z,98683.03
2023-03-26T04:39:30.156Z,98685.06
2023-03-26T04:42:21.104Z,98681.66
2023-03-26T04:45:10.375Z,98678.25
2023-03-26T04:47:39.188Z,98690.59
2023-03-26T04:50:08.980Z,98694.31
2023-03-26T04:52:39.187Z,98692.75
2023-03-26T04:55:31.675Z,98695.56
2023-03-26T04:58:06.306Z,98679.81
2023-03-26T05:00:55.369Z,98688.28
2023-03-26T05:03:23.583Z,98690.91
2023-03-26T05:05:51.047Z,98689.81
2023-03-26T05:08:20.125Z,98697.69
2023-03-26T05:10:50.891Z,98698.03
2023-03-26T05:13:26.404Z,98700.94
2023-03-26T05:15:55.088Z,98702.66
2023-03-26T05:18:38.200Z,98709.78
2023-03-26T05:21:06.433Z,98710.84
2023-03-26T05:23:34.332Z,98714.22
2023-03-26T05:26:18.513Z,98712.41
2023-03-26T05:28:45.682Z,98711.59
2023-03-26T05:31:19.877Z,98705.75
2023-03-26T05:33:50.227Z,98712.41
2023-03-26T05:36:18.778Z,98711.03
2023-03-26T05:39:05.573Z,98709.03
2023-03-26T05:41:59.223Z,98698.38
2023-03-26T05:44:37.800Z,98710.13
2023-03-26T05:47:16.288Z,98720.31
2023-03-26T05:49:44.764Z,98716.47
2023-03-26T05:52:12.180Z,98713.41
2023-03-26T05:54:59.951Z,98723.91
2023-03-26T05:57:47.244Z,98722.00
2023-03-26T06:00:48.021Z,98730.66
2023-03-26T06:03:26.910Z,98734.25
2023-03-26T06:06:10.014Z,98746.47
2023-03-26T06:09:02.382Z,98741.97
2023-03-26T06:11:33.150Z,98747.22
2023-03-26T06:14:02.627Z,98750.19
2023-03-26T06:16:30.085Z,98753.25
2023-03-26T06:19:09.317Z,98764.78
2023-03-26T06:21:48.436Z,98764.34
2023-03-26T06:24:20.286Z,98770.38
2023-03-26T06:26:59.294Z,98768.13
2023-03-26T06:29:44.701Z,98772.91
2023-03-26T06:32:20.374Z,98776.53
2023-03-26T06:35:03.300Z,98768.41
2023-03-26T06:37:30.307Z,98772.47
2023-03-26T06:40:00.985Z,98784.00
2023-03-26T06:43:07.633Z,98790.03
2023-03-26T06:45:52.585Z,98788.81
2023-03-26T06:48:31.713Z,98795.34
2023-03-26T06:51:17.444Z,98785.19
2023-03-26T06:54:03.781Z,98784.09
2023-03-26T06:56:49.528Z,98790.00
2023-03-26T06:59:25.689Z,98786.75
2023-03-26T07:02:11.778Z,98785.84
2023-03-26T07:04:58.597Z,98785.56
2023-03-26T07:07:46.786Z,98781.09
2023-03-26T07:10:33.478Z,98764.41
2023-03-26T07:13:34.202Z,98768.75
2023-03-26T07:16:40.086Z,98763.97
2023-03-26T07:21:59.237Z,98763.03
2023-03-26T07:24:45.099Z,98749.84
2023-03-26T07:28:13.253Z,98760.09
2023-03-26T07:31:19.103Z,98754.97
2023-03-26T07:34:41.326Z,98753.84
2023-03-26T07:38:04.613Z,98751.00
2023-03-26T07:41:10.019Z,98743.09
2023-03-26T07:44:15.475Z,98737.22
2023-03-26T07:47:30.418Z,98735.06
2023-03-26T07:50:25.071Z,98731.59
2023-03-26T07:53:24.162Z,98733.03
2023-03-26T07:56:20.504Z,98731.16
2023-03-26T07:59:16.749Z,98733.63
2023-03-26T08:02:25.219Z,98731.72
2023-03-26T08:05:21.344Z,98735.28
2023-03-26T08:08:18.939Z,98723.22
2023-03-26T08:11:14.303Z,98720.63
2023-03-26T08:14:08.357Z,98721.06
2023-03-26T08:16:51.449Z,98720.16
2023-03-26T08:19:33.096Z,98715.50
2023-03-26T08:22:27.306Z,98720.25
2023-03-26T08:25:14.164Z,98711.06
2023-03-26T08:27:47.170Z,98717.38
2023-03-26T08:30:16.728Z,98720.91
2023-03-26T08:32:53.267Z,98704.13
2023-03-26T08:35:20.046Z,98703.47
2023-03-26T08:37:46.977Z,98702.84
2023-03-26T08:40:36.159Z,98700.59
2023-03-26T08:43:55.412Z,98697.47
2023-03-26T08:46:40.562Z,98677.84
2023-03-26T08:49:44.370Z,98682.19
2023-03-26T08:52:37.074Z,98672.66
2023-03-26T08:55:33.787Z,98669.38
2023-03-26T08:58:36.248Z,98666.84
2023-03-26T09:01:28.435Z,98665.28
2023-03-26T09:04:34.223Z,98653.78
2023-03-26T09:07:55.205Z,98648.09
2023-03-26T09:10:46.539Z,98636.59
2023-03-26T09:13:31.811Z,98624.63
2023-03-26T09:16:26.272Z,98622.13
2023-03-26T09:19:11.771Z,98614.44
2023-03-26T09:22:07.151Z,98613.00
2023-03-26T09:24:33.886Z,98595.72
2023-03-26T09:27:29.310Z,98596.59
2023-03-26T09:30:21.648Z,98603.97
2023-03-26T09:33:04.002Z,98595.28
2023-03-26T09:35:49.350Z,98585.03
2023-03-26T09:38:35.004Z,98587.47
2023-03-26T09:41:27.205Z,98586.34
2023-03-26T09:44:21.286Z,98572.03
2023-03-26T09:47:29.042Z,98573.13
2023-03-26T09:50:14.682Z,98557.47
2023-03-26T09:53:00.853Z,98557.56
2023-03-26T09:56:08.889Z,98543.25
2023-03-26T09:59:23.732Z,98542.56
2023-03-26T10:01:57.271Z,98537.03
2023-03-26T10:04:59.254Z,98525.88
2023-03-26T10:07:56.345Z,98521.44
2023-03-26T10:10:49.054Z,98512.53
2023-03-26T10:13:48.256Z,98502.72
2023-03-26T10:16:45.460Z,98500.16
2023-03-26T10:19:27.465Z,98494.28
2023-03-26T10:22:41.286Z,98481.38
2023-03-26T10:25:29.528Z,98476.84
2023-03-26T10:28:36.399Z,98466.28
2023-03-26T10:31:06.038Z,98461.78
2023-03-26T10:33:40.694Z,98457.44
2023-03-26T10:36:55.197Z,98460.56
2023-03-26T10:39:45.347Z,98442.91
2023-03-26T10:42:36.577Z,98435.84
2023-03-26T10:45:31.304Z,98440.44
2023-03-26T10:48:30.958Z,98441.97
2023-03-26T10:51:23.156Z,98436.50
2023-03-26T10:53:57.482Z,98430.97
2023-03-26T10:56:36.331Z,98413.97
2023-03-26T10:59:11.909Z,98414.28
2023-03-26T11:01:44.254Z,98405.91
2023-03-26T11:04:25.882Z,98401.28
2023-03-26T11:07:22.279Z,98391.44
2023-03-26T11:09:58.337Z,98377.19
2023-03-26T11:12:41.510Z,98363.50
2023-03-26T11:15:40.365Z,98370.06
2023-03-26T11:18:25.240Z,98364.28
2023-03-26T11:21:18.037Z,98354.25
2023-03-26T11:23:47.978Z,98350.03
2023-03-26T11:26:35.073Z,98327.50
2023-03-26T11:29:31.598Z,98335.31
2023-03-26T11:32:12.170Z,98333.91
2023-03-26T11:34:47.035Z,98331.66
2023-03-26T11:37:54.049Z,98331.88
2023-03-26T11:40:28.272Z,98326.66
2023-03-26T11:43:02.226Z,98323.81
2023-03-26T11:45:34.220Z,98326.16
2023-03-26T11:48:15.484Z,98310.25
2023-03-26T11:50:47.121Z,98285.66
2023-03-26T11:53:17.984Z,98303.56
2023-03-26T11:55:55.539Z,98301.31
2023-03-26T11:58:32.259Z,98300.56
2023-03-26T12:01:04.759Z,98295.19
2023-03-26T12:03:31.801Z,98289.56
2023-03-26T12:05:59.823Z,98290.72
2023-03-26T12:08:39.634Z,98277.53
2023-03-26T12:11:12.735Z,98269.94
2023-03-26T12:13:39.677Z,98255.75
2023-03-26T12:16:19.914Z,98259.91
2023-03-26T12:19:02.219Z,98256.19
2023-03-26T12:21:29.126Z,98258.53
2023-03-26T12:24:05.532Z,98253.22
2023-03-26T12:26:41.721Z,98247.91
2023-03-26T12:29:19.117Z,98242.63
2023-03-26T12:31:56.664Z,98236.88
2023-03-26T12:34:30.574Z,98237.25
2023-03-26T12:36:58.738Z,98240.41
2023-03-26T12:40:07.851Z,98225.38
2023-03-26T12:44:49.090Z,98230.31
2023-03-26T12:45:37.642Z,98221.75
2023-03-26T12:48:05.917Z,98219.88
2023-03-26T12:51:32.869Z,98206.63
2023-03-26T12:54:22.503Z,98195.25
2023-03-26T12:57:16.033Z,98175.16
2023-03-26T12:59:52.991Z,98173.28
2023-03-26T13:02:58.723Z,98180.72
2023-03-26T13:06:00.623Z,98169.47
2023-03-26T13:08:30.575Z,98179.13
2023-03-26T13:11:07.817Z,98167.06
2023-03-26T13:13:58.964Z,98163.56
2023-03-26T13:16:55.104Z,98159.28
2023-03-26T13:19:44.155Z,98155.06
2023-03-26T13:22:42.519Z,98150.13
2023-03-26T13:25:26.765Z,98142.16
2023-03-26T13:28:23.245Z,98141.72
2023-03-26T13:31:09.326Z,98142.06
2023-03-26T13:34:19.303Z,98142.44
2023-03-26T13:37:22.256Z,98137.94
2023-03-26T13:40:13.448Z,98137.13
2023-03-26T13:43:11.564Z,98125.75
2023-03-26T13:49:03.244Z,98121.00
2023-03-26T13:51:40.099Z,98121.25
2023-03-26T13:54:36.019Z,98118.41
2023-03-26T13:57:10.303Z,98111.56
2023-03-26T13:59:59.302Z,98094.06
2023-03-26T14:02:35.613Z,98091.50
2023-03-26T14:05:17.659Z,98078.06
2023-03-26T14:07:50.714Z,98060.44
2023-03-26T14:10:30.104Z,98046.91
2023-03-26T14:13:07.356Z,98035.13
2023-03-26T14:15:46.049Z,98025.31
2023-03-26T14:18:35.077Z,98018.94
2023-03-26T14:22:04.269Z,98035.41
2023-03-26T14:24:43.238Z,98029.34
2023-03-26T14:27:16.997Z,98028.28
2023-03-26T14:30:14.768Z,98020.69
2023-03-26T14:33:27.216Z,98016.34
2023-03-26T14:36:04.568Z,98007.25
2023-03-26T14:38:53.089Z,98010.28
2023-03-26T14:41:27.906Z,98003.03
2023-03-26T14:44:48.193Z,97990.47
2023-03-26T14:47:22.240Z,97985.59
2023-03-26T14:50:29.401Z,97989.06
2023-03-26T14:53:03.514Z,97990.47
2023-03-26T14:55:43.697Z,97985.91
2023-03-26T14:58:22.770Z,97989.78
2023-03-26T15:01:38.274Z,97989.41
2023-03-26T15:04:17.556Z,97984.53
2023-03-26T15:07:20.571Z,97982.97
2023-03-26T15:10:23.979Z,97987.59
2023-03-26T15:13:36.730Z,97992.13
2023-03-26T15:16:26.229Z,97983.34
2023-03-26T15:19:31.321Z,97977.59
2023-03-26T15:22:19.989Z,97974.97
2023-03-26T15:25:15.684Z,97974.94
2023-03-26T15:27:49.347Z,97977.97
2023-03-26T15:30:28.682Z,97988.28
2023-03-26T15:33:37.100Z,97985.63
2023-03-26T15:36:22.307Z,97977.63
2023-03-26T15:39:02.509Z,97996.19
2023-03-26T15:41:51.057Z,97993.72
2023-03-26T15:44:27.663Z,97993.88
2023-03-26T15:47:15.208Z,97997.22
2023-03-26T15:50:00.577Z,97998.31
2023-03-26T15:52:38.600Z,98007.31
2023-03-26T15:55:21.029Z,98006.84
2023-03-26T15:58:14.317Z,97999.56
2023-03-26T16:00:58.429Z,98011.13
2023-03-26T16:03:45.179Z,98011.00
2023-03-26T16:06:40.702Z,98022.22
2023-03-26T16:09:22.022Z,98025.19
2023-03-26T16:12:00.504Z,98028.09
2023-03-26T16:15:04.417Z,98034.13
2023-03-26T16:18:10.417Z,98037.00
2023-03-26T16:20:58.122Z,98035.75
2023-03-26T16:23:51.172Z,98027.69
2023-03-26T16:26:29.490Z,98035.88
2023-03-26T16:29:15.082Z,98038.84
2023-03-26T16:32:18.210Z,98038.63
2023-03-26T16:35:00.518Z,98034.31
2023-03-26T16:37:37.793Z,98027.88
2023-03-26T16:40:18.348Z,98039.00
2023-03-26T16:43:17.327Z,98032.88
2023-03-26T16:45:44.907Z,98030.09
2023-03-26T16:48:33.744Z,98033.66
2023-03-26T16:51:51.260Z,98036.22
2023-03-26T16:54:47.256Z,98037.53
2023-03-26T16:57:27.093Z,98039.75
2023-03-26T17:00:25.044Z,98041.19
2023-03-26T17:03:11.642Z,98054.41
2023-03-26T17:05:57.599Z,98051.88
2023-03-26T17:08:48.731Z,98061.31
2023-03-26T17:11:47.467Z,98051.00
2023-03-26T17:14:46.140Z,98066.75
2023-03-26T17:17:44.664Z,98066.28
2023-03-26T17:20:37.402Z,98070.28
2023-03-26T17:23:27.806Z,98064.22
2023-03-26T17:26:12.789Z,98062.94
2023-03-26T17:29:22.408Z,98053.75
2023-03-26T17:32:13.829Z,98064.13
2023-03-26T17:34:51.736Z,98064.91
2023-03-26T17:37:22.249Z,98063.03
2023-03-26T17:40:02.498Z,98050.38
2023-03-26T17:42:33.008Z,98058.28
2023-03-26T17:45:19.788Z,98063.13
2023-03-26T17:47:47.680Z,98067.97
2023-03-26T17:50:21.677Z,98073.16
2023-03-26T17:52:52.505Z,98060.22
2023-03-26T17:55:27.280Z,98064.47
2023-03-26T17:57:59.582Z,98061.84
2023-03-26T18:00:37.004Z,98064.38
2023-03-26T18:03:20.778Z,98067.78
2023-03-26T18:05:57.166Z,98068.63
2023-03-26T18:08:50.169Z,98070.06
2023-03-26T18:11:39.634Z,98074.50
2023-03-26T18:14:46.402Z,98075.25
2023-03-26T18:17:15.884Z,98082.09
2023-03-26T18:19:54.705Z,98073.75
2023-03-26T18:22:29.316Z,98071.69
2023-03-26T18:25:01.271Z,98074.56
2023-03-26T18:27:40.140Z,98071.50
2023-03-26T18:30:18.054Z,98063.59
2023-03-26T18:33:19.962Z,98056.69
2023-03-26T18:35:54.882Z,98050.88
2023-03-26T18:38:36.722Z,98046.19
2023-03-26T18:41:08.425Z,98046.09
2023-03-26T18:43:44.010Z,98043.38
2023-03-26T18:46:15.155Z,98029.31
2023-03-26T18:48:44.639Z,98033.72
2023-03-26T18:51:13.525Z,98024.63
2023-03-26T18:53:59.716Z,98021.09
2023-03-26T18:56:32.545Z,98017.50
2023-03-26T18:59:04.280Z,98008.72
2023-03-26T19:01:37.417Z,98015.41
2023-03-26T19:04:08.671Z,98005.09
2023-03-26T19:06:42.295Z,97994.56
2023-03-26T19:09:28.142Z,97998.00
2023-03-26T19:12:20.866Z,97992.38
2023-03-26T19:14:57.554Z,97984.47
2023-03-26T19:17:32.631Z,97981.19
2023-03-26T19:20:02.413Z,97978.34
2023-03-26T19:22:31.402Z,97976.78
2023-03-26T19:25:02.597Z,97968.47
2023-03-26T19:27:31.101Z,97965.16
2023-03-26T19:29:59.165Z,97956.50
2023-03-26T19:32:31.663Z,97963.88
2023-03-26T19:35:01.936Z,97971.09
2023-03-26T19:37:31.922Z,97972.88
2023-03-26T19:40:12.800Z,97970.47
2023-03-26T19:46:01.744Z,97975.13
2023-03-26T19:48:45.506Z,97968.56
2023-03-26T19:51:45.778Z,97956.06
2023-03-26T19:54:17.342Z,97953.00
2023-03-26T19:56:45.640Z,97957.16
2023-03-26T19:59:14.113Z,97949.38
2023-03-26T20:01:43.971Z,97942.56
2023-03-26T20:04:12.818Z,97949.50
2023-03-26T20:07:35.557Z,97947.31
2023-03-26T20:10:10.319Z,97933.78
2023-03-26T20:12:38.773Z,97933.88
2023-03-26T20:15:29.199Z,97940.59
2023-03-26T20:17:57.096Z,97941.06
2023-03-26T20:20:26.711Z,97931.56
2023-03-26T20:22:55.358Z,97938.34
2023-03-26T20:25:34.771Z,97926.69
2023-03-26T20:28:05.820Z,97926.81
2023-03-26T20:30:38.008Z,97933.19
2023-03-26T20:33:12.128Z,97927.41
2023-03-26T20:35:45.404Z,97931.47
2023-03-26T20:38:14.857Z,97923.25
2023-03-26T20:40:42.501Z,97927.75
2023-03-26T20:43:14.053Z,97920.13
2023-03-26T20:45:41.842Z,97915.13
2023-03-26T20:48:09.683Z,97908.94
2023-03-26T20:50:49.998Z,97910.16
2023-03-26T20:53:18.038Z,97899.63
2023-03-26T20:55:46.322Z,97909.47
2023-03-26T20:58:15.617Z,97902.59
2023-03-26T21:00:42.964Z,97903.25
2023-03-26T21:03:16.172Z,97900.28
2023-03-26T21:05:45.656Z,97903.63
2023-03-26T21:08:18.508Z,97899.31
2023-03-26T21:10:47.611Z,97894.81
2023-03-26T21:13:23.147Z,97889.34
2023-03-26T21:15:54.229Z,97886.00
2023-03-26T21:18:21.377Z,97887.53
2023-03-26T21:21:21.522Z,97881.50
2023-03-26T21:24:17.728Z,97878.44
2023-03-26T21:26:48.348Z,97885.56
2023-03-26T21:29:16.030Z,97873.53
2023-03-26T21:31:45.071Z,97886.59
2023-03-26T21:34:13.332Z,97870.44
2023-03-26T21:36:40.538Z,97861.50
2023-03-26T21:39:09.370Z,97861.25
2023-03-26T21:41:47.783Z,97854.34
2023-03-26T21:44:16.501Z,97859.97
2023-03-26T21:46:45.356Z,97857.75
2023-03-26T21:49:14.231Z,97854.03
2023-03-26T21:51:43.722Z,97853.94
2023-03-26T21:54:28.083Z,97847.13
2023-03-26T21:57:07.286Z,97843.94
2023-03-26T21:59:47.044Z,97839.88
2023-03-26T22:02:48.327Z,97834.50
2023-03-26T22:05:25.335Z,97837.25
2023-03-26T22:08:05.403Z,97845.25
2023-03-26T22:10:57.918Z,97838.91
2023-03-26T22:13:26.336Z,97848.97
2023-03-26T22:15:53.881Z,97841.75
2023-03-26T22:18:21.887Z,97831.72
2023-03-26T22:20:49.857Z,97838.09
2023-03-26T22:23:16.809Z,97836.56
2023-03-26T22:25:43.959Z,97830.09
2023-03-26T22:28:10.959Z,97824.84
2023-03-26T22:30:38.222Z,97826.06
2023-03-26T22:33:06.473Z,97824.59
2023-03-26T22:35:33.929Z,97826.28
2023-03-26T22:38:01.281Z,97822.22
2023-03-26T22:40:30.386Z,97815.53
2023-03-26T22:42:57.256Z,97821.44
2023-03-26T22:45:24.841Z,97813.88
2023-03-26T22:47:52.284Z,97815.84
2023-03-26T22:50:33.027Z,97812.13
2023-03-26T22:53:00.415Z,97809.50
2023-03-26T22:55:29.572Z,97801.50
2023-03-26T22:57:57.326Z,97803.44
2023-03-26T23:00:25.634Z,97800.50
2023-03-26T23:02:52.544Z,97797.53
2023-03-26T23:05:19.955Z,97792.59
2023-03-26T23:07:47.481Z,97793.72
2023-03-26T23:10:14.882Z,97782.75
2023-03-26T23:12:41.669Z,97782.41
2023-03-26T23:15:10.334Z,97782.66
2023-03-26T23:17:38.503Z,97783.00
2023-03-26T23:20:07.637Z,97779.56
2023-03-26T23:22:34.433Z,97783.22
2023-03-26T23:25:01.936Z,97783.88
2023-03-26T23:27:29.089Z,97784.56
2023-03-26T23:29:55.921Z,97786.31
2023-03-26T23:32:23.642Z,97786.75
2023-03-26T23:34:52.842Z,97788.28
2023-03-26T23:37:20.141Z,97784.13
2023-03-26T23:39:47.004Z,97785.25
2023-03-26T23:42:13.711Z,97776.91
2023-03-26T23:44:41.399Z,97771.66
2023-03-26T23:47:08.483Z,97772.75
2023-03-26T23:49:35.303Z,97768.56
2023-03-26T23:52:02.371Z,97772.84
2023-03-26T23:54:29.107Z,97770.88
2023-03-26T23:56:59.818Z,97765.63
